Aviation Digital Data Service (ADDS)

Output produced by METARs form (1911 UTC 25 June 2017)
found at http://www.aviationweather.gov/adds/metars/
 
LYPG 251900Z 15006KT CAVOK 29/15 Q1010 NOSIG
TAF LYPG 251700Z 2518/2618 36005KT 9999 FEW040 TX37/2614Z TN21/2603Z 
     PROB30 
     TEMPO 2609/2616 VRB15G25KT 4000 TSRA FEW030CB SCT040
       
LYTV 251900Z VRB01KT CAVOK 24/19 Q1010 NOSIG
TAF LYTV 251700Z 2518/2618 VRB02KT 9999 FEW040 TX33/2613Z TN16/2603Z 
     PROB40 
     TEMPO 2606/2614 5000 TSRA FEW027CB SCT040